Terminal Aerodrome Forecast
Issued by NWS Corpus Christi, TX

Home | Current Version | Previous Version | Text Only | Print | Product List | Glossary On
Versions: 1 2 3 4 5 6 7 8 9 10 11 12
594
FTUS44 KCRP 240537
TAFCRP
TAF
KCRP 240537Z 2406/2506 15008KT P6SM SCT018 SCT250
     FM240900 16005KT P6SM BKN015
     FM241300 15008KT P6SM VCSH BKN020
     FM241600 14012KT P6SM BKN035 PROB30 2416/2420 5SM TSRA OVC030CB
     FM242000 11014G20KT P6SM SCT035 BKN250
     FM250200 12010KT P6SM SCT020 SCT250=

USA.gov is the U.S. government's official web portal to all federal, state and local government web resources and services.